Pleasant Gap, North Carolina
Current Conditions -  °F | °C
As of 1:35 PM on Monday 26 Jan 2015 (Local Time) from K0A9 Reporting Station
Light Rain Light Rain  
Wind Chill: 28°   Ceiling: 2100
Heat Index: 34°   Visibility: 10mi
Dew Point: 30°   Wind: 7mph
Humidity: 87%   Direction: 280°W
Pressure: 29.72"   Gusts: NA
Location:  35.955°N, 82.2044°W
Report Text: K0A9 261835Z AUTO 28006KT 10SM -RA OVC021 01/M01 A2972 RMK
Loading
Personal Weather Stations






























Interactive Weather Map New forecast layout! Learn more

10-Day Weather Forecast

Advertisements
Track Severe Weather on mobile